TAPA

V.C. Bird International Airport

St. George, Antigua and Barbuda
TAF TAPA 251744Z 2518/2618 08013KT 9999 SCT018 TEMPO 2518/2602 SHRA FEW014CB BKN018 PROB40 TEMPO 2602/2612 SHRA
Issued Valid From Valid To
Sep-25 @ 17:44 UTC
(an hour ago)
Sep-25 @ 18:00 UTC
(an hour ago)
Sep-26 @ 18:00 UTC
(in 23 hours)
Sep-25 @ 18:00 to Sep-26 @ 18:00
TAF TAPA 251744Z 2518/2618 08013KT 9999 SCT018
Wind Visibility Clouds
80° at 13 knots 10,000+ meters
  • Scattered at 1,800' AGL
Temporary Sep-25 @ 18:00 to Sep-26 @ 02:00
TEMPO 2518/2602 SHRA FEW014CB BKN018
Clouds Conditions
  • Few at 1,400' AGL
  • Broken at 1,800' AGL
  • Rain
Temporary  (Probability 40%) Sep-26 @ 02:00 to Sep-26 @ 12:00
PROB40 TEMPO 2602/2612 SHRA
Conditions
  • Rain
TAF TAPA 251744Z 2518/2618 08013KT 9999 SCT018 TEMPO 2518/2602 SHRA FEW014CB BKN018 PROB40 TEMPO 2602/2612 SHRA
Issued Sep-25 @ 17:44 UTC
(an hour ago)
Valid From Sep-25 @ 18:00 UTC
(an hour ago)
Valid To Sep-26 @ 18:00 UTC
(in 23 hours)
Sep-25 @ 18:00 - Sep-26 @ 18:00
Wind Visibility
80° at 13 knots 10,000+ meters
Clouds
  • Scattered at 1,800' AGL
Temporary Sep-25 @ 18:00 - Sep-26 @ 02:00
Clouds
  • Few at 1,400' AGL
  • Broken at 1,800' AGL
Conditions
  • Rain
Probability 40% Temporary Sep-26 @ 02:00 - Sep-26 @ 12:00
Conditions
  • Rain